<?xml version="1.0" encoding="UTF-8" standalone="no" ?>
<gpx xmlns="http://www.topografix.com/GPX/1/1" xmlns:xsi="http://www.w3.org/2001/XMLSchema-instance" xsi:schemaLocation="http://www.topografix.com/GPX/1/1 http://www.topografix.com/GPX/1/1/gpx.xsd" version="1.1" creator="VisuGPX - https://www.visugpx.com">
  <metadata>
    <name>le revard-montagne de bange</name>
    <desc><![CDATA[tour de la montagne de bange, du revard au mariet par les alpages]]></desc>
  </metadata>
  <trk>
    <name><![CDATA[le revard/le mariet]]></name>
    <trkseg>
      <trkpt lat="45.67971" lon="5.99959">
        <ele>1386.358398</ele>
        <time>2011-05-01T08:48:35Z</time>
      </trkpt>
      <trkpt lat="45.67858" lon="5.99907">
        <ele>1393.087646</ele>
        <time>2011-05-01T08:49:13Z</time>
      </trkpt>
      <trkpt lat="45.67832" lon="5.99955">
        <ele>1390.203857</ele>
        <time>2011-05-01T08:49:25Z</time>
      </trkpt>
      <trkpt lat="45.67632" lon="5.9998">
        <ele>1387.31958</ele>
        <time>2011-05-01T08:50:29Z</time>
      </trkpt>
      <trkpt lat="45.67582" lon="6.00344">
        <ele>1380.109863</ele>
        <time>2011-05-01T08:51:24Z</time>
      </trkpt>
      <trkpt lat="45.67648" lon="6.00385">
        <ele>1376.264648</ele>
        <time>2011-05-01T08:51:37Z</time>
      </trkpt>
      <trkpt lat="45.67696" lon="6.00573">
        <ele>1376.264648</ele>
        <time>2011-05-01T08:52:13Z</time>
      </trkpt>
      <trkpt lat="45.67785" lon="6.00678">
        <ele>1367.13208</ele>
        <time>2011-05-01T08:52:47Z</time>
      </trkpt>
      <trkpt lat="45.67745" lon="6.0081">
        <ele>1375.303223</ele>
        <time>2011-05-01T08:53:12Z</time>
      </trkpt>
      <trkpt lat="45.67756" lon="6.00872">
        <ele>1379.62915</ele>
        <time>2011-05-01T08:53:27Z</time>
      </trkpt>
      <trkpt lat="45.67641" lon="6.00946">
        <ele>1373.380859</ele>
        <time>2011-05-01T08:53:54Z</time>
      </trkpt>
      <trkpt lat="45.6756" lon="6.01065">
        <ele>1386.358398</ele>
        <time>2011-05-01T08:54:24Z</time>
      </trkpt>
      <trkpt lat="45.67499" lon="6.01263">
        <ele>1382.993652</ele>
        <time>2011-05-01T08:55:06Z</time>
      </trkpt>
      <trkpt lat="45.67679" lon="6.01509">
        <ele>1397.894287</ele>
        <time>2011-05-01T08:56:55Z</time>
      </trkpt>
      <trkpt lat="45.67686" lon="6.01607">
        <ele>1387.800293</ele>
        <time>2011-05-01T08:57:05Z</time>
      </trkpt>
      <trkpt lat="45.67777" lon="6.0171">
        <ele>1377.226074</ele>
        <time>2011-05-01T08:57:17Z</time>
      </trkpt>
      <trkpt lat="45.67909" lon="6.01748">
        <ele>1375.783936</ele>
        <time>2011-05-01T08:57:36Z</time>
      </trkpt>
      <trkpt lat="45.67954" lon="6.01716">
        <ele>1370.496582</ele>
        <time>2011-05-01T08:57:44Z</time>
      </trkpt>
      <trkpt lat="45.68024" lon="6.01882">
        <ele>1374.342041</ele>
        <time>2011-05-01T08:58:03Z</time>
      </trkpt>
      <trkpt lat="45.68054" lon="6.02112">
        <ele>1374.342041</ele>
        <time>2011-05-01T08:58:48Z</time>
      </trkpt>
      <trkpt lat="45.6813" lon="6.02168">
        <ele>1377.706543</ele>
        <time>2011-05-01T08:59:14Z</time>
      </trkpt>
      <trkpt lat="45.68291" lon="6.02404">
        <ele>1378.667969</ele>
        <time>2011-05-01T09:00:28Z</time>
      </trkpt>
      <trkpt lat="45.68489" lon="6.02528">
        <ele>1371.938477</ele>
        <time>2011-05-01T09:01:17Z</time>
      </trkpt>
      <trkpt lat="45.68479" lon="6.02852">
        <ele>1353.673584</ele>
        <time>2011-05-01T09:02:07Z</time>
      </trkpt>
      <trkpt lat="45.68442" lon="6.02897">
        <ele>1356.557617</ele>
        <time>2011-05-01T09:02:21Z</time>
      </trkpt>
      <trkpt lat="45.68451" lon="6.0297">
        <ele>1353.673584</ele>
        <time>2011-05-01T09:02:32Z</time>
      </trkpt>
      <trkpt lat="45.68486" lon="6.02982">
        <ele>1357.519043</ele>
        <time>2011-05-01T09:02:42Z</time>
      </trkpt>
      <trkpt lat="45.68496" lon="6.03257">
        <ele>1336.369873</ele>
        <time>2011-05-01T09:03:41Z</time>
      </trkpt>
      <trkpt lat="45.68644" lon="6.03253">
        <ele>1346.463867</ele>
        <time>2011-05-01T09:04:28Z</time>
      </trkpt>
      <trkpt lat="45.68835" lon="6.03465">
        <ele>1333.48584</ele>
        <time>2011-05-01T09:05:28Z</time>
      </trkpt>
      <trkpt lat="45.68835" lon="6.03622">
        <ele>1335.408447</ele>
        <time>2011-05-01T09:06:02Z</time>
      </trkpt>
      <trkpt lat="45.68899" lon="6.03687">
        <ele>1330.121338</ele>
        <time>2011-05-01T09:06:20Z</time>
      </trkpt>
      <trkpt lat="45.68974" lon="6.03643">
        <ele>1330.602051</ele>
        <time>2011-05-01T09:06:46Z</time>
      </trkpt>
      <trkpt lat="45.69025" lon="6.03714">
        <ele>1325.79541</ele>
        <time>2011-05-01T09:07:07Z</time>
      </trkpt>
      <trkpt lat="45.69051" lon="6.03839">
        <ele>1331.082764</ele>
        <time>2011-05-01T09:07:25Z</time>
      </trkpt>
      <trkpt lat="45.69264" lon="6.03955">
        <ele>1324.834229</ele>
        <time>2011-05-01T09:08:13Z</time>
      </trkpt>
      <trkpt lat="45.69362" lon="6.04122">
        <ele>1309.933594</ele>
        <time>2011-05-01T09:08:39Z</time>
      </trkpt>
      <trkpt lat="45.69474" lon="6.04076">
        <ele>1304.165771</ele>
        <time>2011-05-01T09:09:09Z</time>
      </trkpt>
      <trkpt lat="45.69511" lon="6.0421">
        <ele>1298.397705</ele>
        <time>2011-05-01T09:09:28Z</time>
      </trkpt>
      <trkpt lat="45.69603" lon="6.04132">
        <ele>1297.436523</ele>
        <time>2011-05-01T09:09:48Z</time>
      </trkpt>
      <trkpt lat="45.69733" lon="6.04204">
        <ele>1289.265137</ele>
        <time>2011-05-01T09:10:15Z</time>
      </trkpt>
      <trkpt lat="45.69764" lon="6.04085">
        <ele>1303.204346</ele>
        <time>2011-05-01T09:10:58Z</time>
      </trkpt>
      <trkpt lat="45.69806" lon="6.04172">
        <ele>1303.685059</ele>
        <time>2011-05-01T09:11:25Z</time>
      </trkpt>
      <trkpt lat="45.69907" lon="6.04222">
        <ele>1310.414307</ele>
        <time>2011-05-01T09:12:00Z</time>
      </trkpt>
      <trkpt lat="45.69907" lon="6.04268">
        <ele>1306.568848</ele>
        <time>2011-05-01T09:12:09Z</time>
      </trkpt>
      <trkpt lat="45.69975" lon="6.04254">
        <ele>1314.740234</ele>
        <time>2011-05-01T09:13:31Z</time>
      </trkpt>
      <trkpt lat="45.69955" lon="6.04261">
        <ele>1308.972412</ele>
        <time>2011-05-01T09:14:25Z</time>
      </trkpt>
      <trkpt lat="45.70056" lon="6.0384">
        <ele>1339.253662</ele>
        <time>2011-05-01T09:17:20Z</time>
      </trkpt>
      <trkpt lat="45.70128" lon="6.03701">
        <ele>1350.309082</ele>
        <time>2011-05-01T09:18:07Z</time>
      </trkpt>
      <trkpt lat="45.70331" lon="6.03536">
        <ele>1357.999756</ele>
        <time>2011-05-01T09:19:40Z</time>
      </trkpt>
      <trkpt lat="45.70393" lon="6.03621">
        <ele>1366.170654</ele>
        <time>2011-05-01T09:20:32Z</time>
      </trkpt>
      <trkpt lat="45.70473" lon="6.03604">
        <ele>1372.419434</ele>
        <time>2011-05-01T09:21:25Z</time>
      </trkpt>
      <trkpt lat="45.70614" lon="6.03352">
        <ele>1413.275391</ele>
        <time>2011-05-01T09:24:40Z</time>
      </trkpt>
      <trkpt lat="45.70814" lon="6.03111">
        <ele>1415.678711</ele>
        <time>2011-05-01T09:30:11Z</time>
      </trkpt>
      <trkpt lat="45.71174" lon="6.03167">
        <ele>1394.049072</ele>
        <time>2011-05-01T09:33:40Z</time>
      </trkpt>
      <trkpt lat="45.71182" lon="6.03128">
        <ele>1388.28125</ele>
        <time>2011-05-01T09:35:17Z</time>
      </trkpt>
      <trkpt lat="45.7127" lon="6.03142">
        <ele>1360.402832</ele>
        <time>2011-05-01T09:36:55Z</time>
      </trkpt>
      <trkpt lat="45.71315" lon="6.03206">
        <ele>1345.502441</ele>
        <time>2011-05-01T09:38:33Z</time>
      </trkpt>
      <trkpt lat="45.71503" lon="6.03207">
        <ele>1322.911377</ele>
        <time>2011-05-01T09:41:08Z</time>
      </trkpt>
      <trkpt lat="45.7163" lon="6.03362">
        <ele>1309.453125</ele>
        <time>2011-05-01T09:42:27Z</time>
      </trkpt>
      <trkpt lat="45.71615" lon="6.03623">
        <ele>1300.801025</ele>
        <time>2011-05-01T09:43:21Z</time>
      </trkpt>
      <trkpt lat="45.71637" lon="6.03677">
        <ele>1299.839844</ele>
        <time>2011-05-01T09:43:43Z</time>
      </trkpt>
      <trkpt lat="45.71701" lon="6.03681">
        <ele>1303.204346</ele>
        <time>2011-05-01T09:44:18Z</time>
      </trkpt>
      <trkpt lat="45.71719" lon="6.03737">
        <ele>1308.972412</ele>
        <time>2011-05-01T09:44:47Z</time>
      </trkpt>
      <trkpt lat="45.71775" lon="6.03667">
        <ele>1316.662842</ele>
        <time>2011-05-01T09:45:39Z</time>
      </trkpt>
      <trkpt lat="45.71715" lon="6.03529">
        <ele>1333.005127</ele>
        <time>2011-05-01T09:46:49Z</time>
      </trkpt>
      <trkpt lat="45.71783" lon="6.03495">
        <ele>1333.966553</ele>
        <time>2011-05-01T09:47:36Z</time>
      </trkpt>
      <trkpt lat="45.71894" lon="6.0367">
        <ele>1350.309082</ele>
        <time>2011-05-01T09:49:13Z</time>
      </trkpt>
      <trkpt lat="45.71999" lon="6.0369">
        <ele>1360.402832</ele>
        <time>2011-05-01T09:50:16Z</time>
      </trkpt>
      <trkpt lat="45.72339" lon="6.03603">
        <ele>1326.276123</ele>
        <time>2011-05-01T09:51:38Z</time>
      </trkpt>
      <trkpt lat="45.72331" lon="6.03541">
        <ele>1323.39209</ele>
        <time>2011-05-01T09:51:52Z</time>
      </trkpt>
      <trkpt lat="45.72426" lon="6.03427">
        <ele>1311.856445</ele>
        <time>2011-05-01T09:52:16Z</time>
      </trkpt>
      <trkpt lat="45.72501" lon="6.03433">
        <ele>1317.624023</ele>
        <time>2011-05-01T09:53:34Z</time>
      </trkpt>
      <trkpt lat="45.72629" lon="6.0356">
        <ele>1336.369873</ele>
        <time>2011-05-01T09:55:33Z</time>
      </trkpt>
      <trkpt lat="45.7261" lon="6.03603">
        <ele>1342.618652</ele>
        <time>2011-05-01T09:56:03Z</time>
      </trkpt>
      <trkpt lat="45.72671" lon="6.03564">
        <ele>1345.983154</ele>
        <time>2011-05-01T09:57:32Z</time>
      </trkpt>
      <trkpt lat="45.72661" lon="6.03592">
        <ele>1353.192871</ele>
        <time>2011-05-01T09:57:49Z</time>
      </trkpt>
      <trkpt lat="45.72836" lon="6.03552">
        <ele>1401.739502</ele>
        <time>2011-05-01T10:02:22Z</time>
      </trkpt>
      <trkpt lat="45.72798" lon="6.03621">
        <ele>1407.988281</ele>
        <time>2011-05-01T10:03:14Z</time>
      </trkpt>
      <trkpt lat="45.72839" lon="6.03802">
        <ele>1409.430176</ele>
        <time>2011-05-01T10:04:54Z</time>
      </trkpt>
      <trkpt lat="45.73579" lon="6.04368">
        <ele>1279.6521</ele>
        <time>2011-05-01T10:20:48Z</time>
      </trkpt>
      <trkpt lat="45.73608" lon="6.04454">
        <ele>1270.519531</ele>
        <time>2011-05-01T10:21:30Z</time>
      </trkpt>
      <trkpt lat="45.73591" lon="6.04516">
        <ele>1267.635498</ele>
        <time>2011-05-01T10:22:28Z</time>
      </trkpt>
      <trkpt lat="45.73842" lon="6.04641">
        <ele>1265.713135</ele>
        <time>2011-05-01T10:25:52Z</time>
      </trkpt>
      <trkpt lat="45.7384" lon="6.04707">
        <ele>1254.657715</ele>
        <time>2011-05-01T10:29:44Z</time>
      </trkpt>
      <trkpt lat="45.73908" lon="6.04763">
        <ele>1231.586182</ele>
        <time>2011-05-01T10:31:22Z</time>
      </trkpt>
      <trkpt lat="45.73911" lon="6.04843">
        <ele>1226.298828</ele>
        <time>2011-05-01T10:31:52Z</time>
      </trkpt>
      <trkpt lat="45.73863" lon="6.04872">
        <ele>1220.050293</ele>
        <time>2011-05-01T10:32:23Z</time>
      </trkpt>
      <trkpt lat="45.73757" lon="6.04844">
        <ele>1209.47583</ele>
        <time>2011-05-01T10:33:00Z</time>
      </trkpt>
      <trkpt lat="45.73691" lon="6.04913">
        <ele>1193.614014</ele>
        <time>2011-05-01T10:34:32Z</time>
      </trkpt>
      <trkpt lat="45.7327" lon="6.04849">
        <ele>1111.421387</ele>
        <time>2011-05-01T10:39:42Z</time>
      </trkpt>
      <trkpt lat="45.73272" lon="6.04886">
        <ele>1113.824463</ele>
        <time>2011-05-01T10:40:12Z</time>
      </trkpt>
      <trkpt lat="45.73153" lon="6.0495">
        <ele>1092.195068</ele>
        <time>2011-05-01T10:43:16Z</time>
      </trkpt>
      <trkpt lat="45.73193" lon="6.05014">
        <ele>1080.178467</ele>
        <time>2011-05-01T10:43:43Z</time>
      </trkpt>
      <trkpt lat="45.73522" lon="6.0507">
        <ele>1106.134033</ele>
        <time>2011-05-01T10:47:30Z</time>
      </trkpt>
      <trkpt lat="45.73627" lon="6.05235">
        <ele>1061.913574</ele>
        <time>2011-05-01T10:54:08Z</time>
      </trkpt>
      <trkpt lat="45.73572" lon="6.05316">
        <ele>1028.748047</ele>
        <time>2011-05-01T10:57:01Z</time>
      </trkpt>
      <trkpt lat="45.73669" lon="6.05372">
        <ele>1024.902832</ele>
        <time>2011-05-01T10:58:27Z</time>
      </trkpt>
      <trkpt lat="45.73664" lon="6.05412">
        <ele>1016.731445</ele>
        <time>2011-05-01T10:59:24Z</time>
      </trkpt>
      <trkpt lat="45.73881" lon="6.05495">
        <ele>1019.134766</ele>
        <time>2011-05-01T11:02:09Z</time>
      </trkpt>
      <trkpt lat="45.74128" lon="6.05496">
        <ele>1033.554443</ele>
        <time>2011-05-01T11:03:57Z</time>
      </trkpt>
      <trkpt lat="45.74487" lon="6.05643">
        <ele>1059.990723</ele>
        <time>2011-05-01T11:07:12Z</time>
      </trkpt>
      <trkpt lat="45.7481" lon="6.05678">
        <ele>1077.294678</ele>
        <time>2011-05-01T11:10:23Z</time>
      </trkpt>
      <trkpt lat="45.74946" lon="6.05638">
        <ele>1084.504639</ele>
        <time>2011-05-01T11:12:10Z</time>
      </trkpt>
      <trkpt lat="45.75027" lon="6.05673">
        <ele>1099.404785</ele>
        <time>2011-05-01T11:13:02Z</time>
      </trkpt>
      <trkpt lat="45.74599" lon="6.0566">
        <ele>1055.665039</ele>
        <time>2011-05-01T11:20:45Z</time>
      </trkpt>
      <trkpt lat="45.74453" lon="6.05606">
        <ele>1056.145508</ele>
        <time>2011-05-01T11:21:19Z</time>
      </trkpt>
      <trkpt lat="45.74121" lon="6.0561">
        <ele>1016.250732</ele>
        <time>2011-05-01T11:22:38Z</time>
      </trkpt>
      <trkpt lat="45.74064" lon="6.05646">
        <ele>1007.599121</ele>
        <time>2011-05-01T11:22:48Z</time>
      </trkpt>
      <trkpt lat="45.74046" lon="6.05876">
        <ele>987.891846</ele>
        <time>2011-05-01T11:23:35Z</time>
      </trkpt>
      <trkpt lat="45.74083" lon="6.05846">
        <ele>993.179199</ele>
        <time>2011-05-01T11:24:29Z</time>
      </trkpt>
      <trkpt lat="45.74103" lon="6.05907">
        <ele>996.063232</ele>
        <time>2011-05-01T11:25:09Z</time>
      </trkpt>
      <trkpt lat="45.73876" lon="6.06033">
        <ele>972.510986</ele>
        <time>2011-05-01T11:28:48Z</time>
      </trkpt>
      <trkpt lat="45.73582" lon="6.05953">
        <ele>975.875488</ele>
        <time>2011-05-01T11:31:26Z</time>
      </trkpt>
      <trkpt lat="45.73341" lon="6.06014">
        <ele>985.969238</ele>
        <time>2011-05-01T11:33:26Z</time>
      </trkpt>
      <trkpt lat="45.73081" lon="6.05907">
        <ele>984.046631</ele>
        <time>2011-05-01T11:35:37Z</time>
      </trkpt>
      <trkpt lat="45.73032" lon="6.05952">
        <ele>1012.405518</ele>
        <time>2011-05-01T11:36:25Z</time>
      </trkpt>
      <trkpt lat="45.73033" lon="6.06013">
        <ele>1006.156982</ele>
        <time>2011-05-01T11:37:02Z</time>
      </trkpt>
      <trkpt lat="45.729" lon="6.06146">
        <ele>1004.234619</ele>
        <time>2011-05-01T11:38:07Z</time>
      </trkpt>
      <trkpt lat="45.72789" lon="6.06165">
        <ele>993.179199</ele>
        <time>2011-05-01T11:38:35Z</time>
      </trkpt>
      <trkpt lat="45.72696" lon="6.06126">
        <ele>1001.350342</ele>
        <time>2011-05-01T11:39:07Z</time>
      </trkpt>
      <trkpt lat="45.7258" lon="6.06151">
        <ele>997.024414</ele>
        <time>2011-05-01T11:39:37Z</time>
      </trkpt>
      <trkpt lat="45.72479" lon="6.06241">
        <ele>993.659912</ele>
        <time>2011-05-01T11:40:05Z</time>
      </trkpt>
      <trkpt lat="45.72409" lon="6.06241">
        <ele>1000.38916</ele>
        <time>2011-05-01T11:40:25Z</time>
      </trkpt>
      <trkpt lat="45.72147" lon="6.0642">
        <ele>968.665527</ele>
        <time>2011-05-01T11:41:32Z</time>
      </trkpt>
      <trkpt lat="45.72047" lon="6.06205">
        <ele>972.510986</ele>
        <time>2011-05-01T11:42:49Z</time>
      </trkpt>
      <trkpt lat="45.71953" lon="6.06119">
        <ele>988.853516</ele>
        <time>2011-05-01T11:43:52Z</time>
      </trkpt>
      <trkpt lat="45.71701" lon="6.05639">
        <ele>1047.493652</ele>
        <time>2011-05-01T11:47:49Z</time>
      </trkpt>
      <trkpt lat="45.71608" lon="6.05692">
        <ele>1040.764404</ele>
        <time>2011-05-01T11:48:43Z</time>
      </trkpt>
      <trkpt lat="45.71535" lon="6.05606">
        <ele>1052.781006</ele>
        <time>2011-05-01T11:49:38Z</time>
      </trkpt>
      <trkpt lat="45.71477" lon="6.05667">
        <ele>1059.990723</ele>
        <time>2011-05-01T11:50:22Z</time>
      </trkpt>
      <trkpt lat="45.7143" lon="6.05621">
        <ele>1062.874756</ele>
        <time>2011-05-01T11:52:07Z</time>
      </trkpt>
      <trkpt lat="45.71039" lon="6.0568">
        <ele>1115.747314</ele>
        <time>2011-05-01T11:56:00Z</time>
      </trkpt>
      <trkpt lat="45.70866" lon="6.05594">
        <ele>1133.531738</ele>
        <time>2011-05-01T11:58:01Z</time>
      </trkpt>
      <trkpt lat="45.70537" lon="6.05661">
        <ele>1149.393555</ele>
        <time>2011-05-01T12:00:03Z</time>
      </trkpt>
      <trkpt lat="45.7041" lon="6.05597">
        <ele>1160.929199</ele>
        <time>2011-05-01T12:02:45Z</time>
      </trkpt>
      <trkpt lat="45.70165" lon="6.05641">
        <ele>1199.38208</ele>
        <time>2011-05-01T12:05:20Z</time>
      </trkpt>
      <trkpt lat="45.70128" lon="6.0558">
        <ele>1206.111084</ele>
        <time>2011-05-01T12:05:54Z</time>
      </trkpt>
      <trkpt lat="45.70224" lon="6.05584">
        <ele>1206.111084</ele>
        <time>2011-05-01T12:06:46Z</time>
      </trkpt>
      <trkpt lat="45.70303" lon="6.05465">
        <ele>1244.563965</ele>
        <time>2011-05-01T12:10:35Z</time>
      </trkpt>
      <trkpt lat="45.70474" lon="6.05323">
        <ele>1246.006104</ele>
        <time>2011-05-01T12:12:23Z</time>
      </trkpt>
      <trkpt lat="45.70551" lon="6.0515">
        <ele>1256.099609</ele>
        <time>2011-05-01T12:13:42Z</time>
      </trkpt>
      <trkpt lat="45.70692" lon="6.05008">
        <ele>1271.000244</ele>
        <time>2011-05-01T12:15:14Z</time>
      </trkpt>
      <trkpt lat="45.70779" lon="6.04773">
        <ele>1283.497314</ele>
        <time>2011-05-01T12:17:08Z</time>
      </trkpt>
      <trkpt lat="45.70828" lon="6.0474">
        <ele>1291.668457</ele>
        <time>2011-05-01T12:17:34Z</time>
      </trkpt>
      <trkpt lat="45.70847" lon="6.04658">
        <ele>1296.475342</ele>
        <time>2011-05-01T12:18:16Z</time>
      </trkpt>
      <trkpt lat="45.71059" lon="6.04329">
        <ele>1319.546875</ele>
        <time>2011-05-01T12:21:15Z</time>
      </trkpt>
      <trkpt lat="45.71003" lon="6.04364">
        <ele>1333.966553</ele>
        <time>2011-05-01T12:21:54Z</time>
      </trkpt>
      <trkpt lat="45.71028" lon="6.04276">
        <ele>1330.602051</ele>
        <time>2011-05-01T12:22:40Z</time>
      </trkpt>
      <trkpt lat="45.70955" lon="6.04249">
        <ele>1352.231445</ele>
        <time>2011-05-01T12:23:34Z</time>
      </trkpt>
      <trkpt lat="45.70934" lon="6.04167">
        <ele>1357.03833</ele>
        <time>2011-05-01T12:24:05Z</time>
      </trkpt>
      <trkpt lat="45.70953" lon="6.03886">
        <ele>1364.72876</ele>
        <time>2011-05-01T12:26:17Z</time>
      </trkpt>
      <trkpt lat="45.70807" lon="6.03919">
        <ele>1361.364258</ele>
        <time>2011-05-01T12:27:39Z</time>
      </trkpt>
      <trkpt lat="45.70777" lon="6.03819">
        <ele>1361.844971</ele>
        <time>2011-05-01T12:28:04Z</time>
      </trkpt>
      <trkpt lat="45.70668" lon="6.03775">
        <ele>1370.015869</ele>
        <time>2011-05-01T12:29:13Z</time>
      </trkpt>
      <trkpt lat="45.70472" lon="6.03904">
        <ele>1353.192871</ele>
        <time>2011-05-01T12:35:40Z</time>
      </trkpt>
      <trkpt lat="45.70402" lon="6.03861">
        <ele>1353.192871</ele>
        <time>2011-05-01T12:35:58Z</time>
      </trkpt>
      <trkpt lat="45.70386" lon="6.03621">
        <ele>1363.767334</ele>
        <time>2011-05-01T12:37:53Z</time>
      </trkpt>
      <trkpt lat="45.70325" lon="6.03528">
        <ele>1355.596191</ele>
        <time>2011-05-01T12:38:28Z</time>
      </trkpt>
      <trkpt lat="45.70097" lon="6.03743">
        <ele>1340.695801</ele>
        <time>2011-05-01T12:39:52Z</time>
      </trkpt>
      <trkpt lat="45.69951" lon="6.04281">
        <ele>1296.475342</ele>
        <time>2011-05-01T12:41:16Z</time>
      </trkpt>
      <trkpt lat="45.69907" lon="6.04276">
        <ele>1295.033203</ele>
        <time>2011-05-01T12:41:37Z</time>
      </trkpt>
      <trkpt lat="45.69898" lon="6.0421">
        <ele>1295.994629</ele>
        <time>2011-05-01T12:41:55Z</time>
      </trkpt>
      <trkpt lat="45.69843" lon="6.0421">
        <ele>1298.397705</ele>
        <time>2011-05-01T12:42:11Z</time>
      </trkpt>
      <trkpt lat="45.69744" lon="6.03969">
        <ele>1308.011231</ele>
        <time>2011-05-01T12:43:30Z</time>
      </trkpt>
      <trkpt lat="45.69718" lon="6.03733">
        <ele>1285.419922</ele>
        <time>2011-05-01T12:44:05Z</time>
      </trkpt>
      <trkpt lat="45.69743" lon="6.03618">
        <ele>1273.403564</ele>
        <time>2011-05-01T12:44:26Z</time>
      </trkpt>
      <trkpt lat="45.69699" lon="6.03412">
        <ele>1258.50293</ele>
        <time>2011-05-01T12:46:03Z</time>
      </trkpt>
      <trkpt lat="45.69597" lon="6.03484">
        <ele>1228.702393</ele>
        <time>2011-05-01T12:46:45Z</time>
      </trkpt>
      <trkpt lat="45.69642" lon="6.03025">
        <ele>1201.304688</ele>
        <time>2011-05-01T12:49:00Z</time>
      </trkpt>
      <trkpt lat="45.69605" lon="6.02612">
        <ele>1187.365479</ele>
        <time>2011-05-01T12:50:11Z</time>
      </trkpt>
      <trkpt lat="45.69648" lon="6.02489">
        <ele>1175.82959</ele>
        <time>2011-05-01T12:50:43Z</time>
      </trkpt>
      <trkpt lat="45.69614" lon="6.02328">
        <ele>1192.172119</ele>
        <time>2011-05-01T12:53:00Z</time>
      </trkpt>
      <trkpt lat="45.69645" lon="6.02033">
        <ele>1153.238769</ele>
        <time>2011-05-01T13:06:29Z</time>
      </trkpt>
      <trkpt lat="45.69322" lon="6.01525">
        <ele>1136.89624</ele>
        <time>2011-05-01T13:08:29Z</time>
      </trkpt>
      <trkpt lat="45.69097" lon="6.01357">
        <ele>1146.028809</ele>
        <time>2011-05-01T13:10:12Z</time>
      </trkpt>
      <trkpt lat="45.69064" lon="6.01045">
        <ele>1147.470703</ele>
        <time>2011-05-01T13:11:39Z</time>
      </trkpt>
      <trkpt lat="45.69102" lon="6.00998">
        <ele>1143.625488</ele>
        <time>2011-05-01T13:12:04Z</time>
      </trkpt>
      <trkpt lat="45.6923" lon="6.00977">
        <ele>1142.664307</ele>
        <time>2011-05-01T13:14:24Z</time>
      </trkpt>
      <trkpt lat="45.69178" lon="6.0071">
        <ele>1172.945801</ele>
        <time>2011-05-01T13:16:44Z</time>
      </trkpt>
      <trkpt lat="45.69155" lon="6.00764">
        <ele>1175.348877</ele>
        <time>2011-05-01T13:17:25Z</time>
      </trkpt>
      <trkpt lat="45.69113" lon="6.00686">
        <ele>1189.288086</ele>
        <time>2011-05-01T13:18:27Z</time>
      </trkpt>
      <trkpt lat="45.6909" lon="6.00523">
        <ele>1207.07251</ele>
        <time>2011-05-01T13:20:07Z</time>
      </trkpt>
      <trkpt lat="45.69121" lon="6.00508">
        <ele>1203.708008</ele>
        <time>2011-05-01T13:20:38Z</time>
      </trkpt>
      <trkpt lat="45.69096" lon="6.0047">
        <ele>1208.995117</ele>
        <time>2011-05-01T13:21:20Z</time>
      </trkpt>
      <trkpt lat="45.69025" lon="6.00498">
        <ele>1211.87915</ele>
        <time>2011-05-01T13:26:26Z</time>
      </trkpt>
      <trkpt lat="45.68802" lon="6.00337">
        <ele>1227.260254</ele>
        <time>2011-05-01T13:28:48Z</time>
      </trkpt>
      <trkpt lat="45.68792" lon="6.00559">
        <ele>1231.105713</ele>
        <time>2011-05-01T13:32:08Z</time>
      </trkpt>
      <trkpt lat="45.68696" lon="6.00526">
        <ele>1247.928711</ele>
        <time>2011-05-01T13:35:37Z</time>
      </trkpt>
      <trkpt lat="45.6859" lon="6.00559">
        <ele>1260.906494</ele>
        <time>2011-05-01T13:37:45Z</time>
      </trkpt>
      <trkpt lat="45.68537" lon="6.0051">
        <ele>1264.270996</ele>
        <time>2011-05-01T13:38:26Z</time>
      </trkpt>
      <trkpt lat="45.68599" lon="6.00442">
        <ele>1276.287598</ele>
        <time>2011-05-01T13:40:33Z</time>
      </trkpt>
      <trkpt lat="45.68352" lon="6.00357">
        <ele>1320.027344</ele>
        <time>2011-05-01T13:46:15Z</time>
      </trkpt>
      <trkpt lat="45.68194" lon="6.00177">
        <ele>1342.618652</ele>
        <time>2011-05-01T13:48:08Z</time>
      </trkpt>
      <trkpt lat="45.68151" lon="6.00263">
        <ele>1340.215332</ele>
        <time>2011-05-01T13:48:41Z</time>
      </trkpt>
      <trkpt lat="45.6811" lon="6.00245">
        <ele>1344.060547</ele>
        <time>2011-05-01T13:49:04Z</time>
      </trkpt>
      <trkpt lat="45.68191" lon="6.00078">
        <ele>1351.750977</ele>
        <time>2011-05-01T13:50:17Z</time>
      </trkpt>
      <trkpt lat="45.68019" lon="5.99992">
        <ele>1369.054688</ele>
        <time>2011-05-01T13:52:10Z</time>
      </trkpt>
      <trkpt lat="45.67985" lon="5.99916">
        <ele>1375.303223</ele>
        <time>2011-05-01T13:52:58Z</time>
      </trkpt>
      <trkpt lat="45.67978" lon="5.99958">
        <ele>1382.513184</ele>
        <time>2011-05-01T13:53:28Z</time>
      </trkpt>
    </trkseg>
  </trk>
</gpx>